Time;durP1;ratioP1;P1;durP2;ratioP2;P2;SDS_P1;SDS_P2;PMS_P1;PMS_P2;Temp;Humidity;BMP_temperature;BMP_pressure;BME280_temperature;BME280_humidity;BME280_pressure;Samples;Min_cycle;Max_cycle;Signal;HPM_P1;HPM_P2
2022/09/05 00:04:02;;;;;;;;;;;;;;;21.37;54.97;100570.88;10305449;28;19932;-74
2022/09/05 00:09:40;;;;;;;;;;;;;;;21.32;54.98;100571.44;10309605;28;19922;-74
2022/09/05 00:14:57;;;;;;;;;;;;;;;21.27;55.08;100567.59;10296251;28;19929;-72
2022/09/05 00:20:30;;;;;;;;;;;;;;;21.11;55.50;100574.88;10325848;28;19929;-72
2022/09/05 00:25:52;;;;;;;;;;;;;;;21.12;56.11;100563.03;10317381;28;20000;-72
2022/09/05 00:30:59;;;;;;;;;;;;;;;21.11;56.21;100574.88;10316003;28;19951;-73
2022/09/05 00:36:26;;;;;;;;;;;;;;;20.93;55.68;100563.56;10312997;28;19936;-71
2022/09/05 00:41:27;;;;;;;;;;;;;;;20.93;55.87;100566.28;10311741;28;19947;-72
2022/09/05 00:46:36;;;;;;;;;;;;;;;20.82;55.97;100565.69;10316888;28;19953;-71
2022/09/05 00:51:50;;;;;;;;;;;;;;;20.87;55.84;100564.28;10346837;28;19922;-71
2022/09/05 00:57:10;;;;;;;;;;;;;;;20.70;56.52;100561.72;10342202;28;19928;-72
2022/09/05 01:02:30;;;;;;;;;;;;;;;20.59;57.26;100559.44;10316863;28;19936;-72
2022/09/05 01:07:43;;;;;;;;;;;;;;;20.56;57.42;100554.41;10318229;28;19948;-72
2022/09/05 01:12:47;;;;;;;;;;;;;;;20.55;57.54;100552.69;10314366;28;20017;-71
2022/09/05 01:17:53;;;;;;;;;;;;;;;20.50;57.75;100553.25;10313257;28;19932;-72
2022/09/05 01:23:14;;;;;;;;;;;;;;;20.48;57.91;100542.63;10316009;28;19922;-72
2022/09/05 01:28:42;;;;;;;;;;;;;;;20.57;57.73;100556.09;10318228;28;20056;-71
2022/09/05 01:34:10;;;;;;;;;;;;;;;20.49;58.13;100543.44;10315922;28;20395;-71
2022/09/05 01:39:21;;;;;;;;;;;;;;;20.44;58.39;100551.28;10309784;28;20170;-70
2022/09/05 01:44:48;;;;;;;;;;;;;;;20.53;58.56;100560.16;10312989;28;19933;-71
2022/09/05 01:49:54;;;;;;;;;;;;;;;20.39;58.96;100546.41;10310261;28;20033;-72
2022/09/05 01:55:13;;;;;;;;;;;;;;;20.31;59.42;100552.72;10304860;28;19929;-71
2022/09/05 02:00:14;;;;;;;;;;;;;;;20.37;59.57;100548.47;10300992;28;19930;-72
2022/09/05 02:05:34;;;;;;;;;;;;;;;20.35;59.73;100538.84;10325978;28;20400;-71
2022/09/05 02:11:00;;;;;;;;;;;;;;;20.17;60.38;100528.34;10310250;28;19956;-74
2022/09/05 02:16:05;;;;;;;;;;;;;;;20.08;60.94;100525.69;10306369;28;19931;-73
2022/09/05 02:21:25;;;;;;;;;;;;;;;20.05;61.25;100530.59;10295192;28;19930;-73
2022/09/05 02:26:30;;;;;;;;;;;;;;;20.07;61.46;100528.56;10323850;28;19929;-74
2022/09/05 02:31:38;;;;;;;;;;;;;;;20.05;61.35;100528.75;10312469;28;19975;-72
2022/09/05 02:36:58;;;;;;;;;;;;;;;20.15;61.22;100525.81;10324174;28;19929;-74
2022/09/05 02:42:08;;;;;;;;;;;;;;;20.28;61.06;100515.25;10308979;28;19960;-74
2022/09/05 02:47:29;;;;;;;;;;;;;;;20.31;60.39;100511.31;10313186;28;19922;-73
2022/09/05 02:52:33;;;;;;;;;;;;;;;20.35;60.38;100519.94;10311208;28;19925;-74
2022/09/05 02:58:15;;;;;;;;;;;;;;;20.26;60.33;100517.28;10311855;28;20290;-72
2022/09/05 03:03:20;;;;;;;;;;;;;;;20.21;60.68;100529.66;10295124;28;20588;-73
2022/09/05 03:08:36;;;;;;;;;;;;;;;20.27;60.45;100524.38;10327070;28;19921;-72
2022/09/05 03:13:44;;;;;;;;;;;;;;;20.20;60.53;100533.38;10314238;28;19922;-72
2022/09/05 03:19:25;;;;;;;;;;;;;;;20.23;60.50;100533.03;10309880;28;20396;-71
2022/09/05 03:24:40;;;;;;;;;;;;;;;20.14;60.00;100541.16;10310298;28;19925;-74
2022/09/05 03:30:11;;;;;;;;;;;;;;;20.10;60.08;100529.06;10306665;28;19925;-72
2022/09/05 03:35:31;;;;;;;;;;;;;;;20.06;59.95;100541.25;10307484;28;19928;-71
2022/09/05 03:40:38;;;;;;;;;;;;;;;19.99;59.91;100540.25;10306097;28;19926;-72
2022/09/05 03:45:54;;;;;;;;;;;;;;;19.89;60.39;100539.63;10305736;28;20016;-71
2022/09/05 03:50:55;;;;;;;;;;;;;;;19.87;60.54;100545.22;10309913;28;19932;-72
2022/09/05 03:56:23;;;;;;;;;;;;;;;19.89;60.08;100545.03;10305972;28;19932;-72
2022/09/05 04:01:46;;;;;;;;;;;;;;;19.85;59.99;100538.34;10316655;28;19922;-73
2022/09/05 04:07:10;;;;;;;;;;;;;;;19.85;60.24;100530.22;10317081;28;19928;-72
2022/09/05 04:12:34;;;;;;;;;;;;;;;19.82;60.17;100530.59;10315884;28;20239;-72
2022/09/05 04:17:41;;;;;;;;;;;;;;;19.76;60.24;100540.22;10315173;28;19925;-72
2022/09/05 04:23:01;;;;;;;;;;;;;;;19.63;60.46;100535.34;10323022;28;19921;-71
2022/09/05 04:28:08;;;;;;;;;;;;;;;19.50;60.84;100546.75;10320893;28;20759;-73
2022/09/05 04:33:15;;;;;;;;;;;;;;;19.42;61.38;100547.59;10316968;28;19922;-73
2022/09/05 04:38:17;;;;;;;;;;;;;;;19.43;61.32;100549.28;10316024;28;19926;-73
2022/09/05 04:43:37;;;;;;;;;;;;;;;19.41;61.26;100558.56;10322225;28;19944;-72
2022/09/05 04:48:48;;;;;;;;;;;;;;;19.32;61.68;100563.16;10333596;28;20700;-73
2022/09/05 04:53:51;;;;;;;;;;;;;;;19.19;62.06;100568.25;10301410;28;19936;-72
2022/09/05 04:58:56;;;;;;;;;;;;;;;19.02;62.67;100573.69;10318581;28;20304;-75
2022/09/05 05:04:20;;;;;;;;;;;;;;;19.11;62.66;100577.22;10322432;28;20136;-73
2022/09/05 05:09:43;;;;;;;;;;;;;;;19.12;62.93;100578.03;10299340;28;19945;-74
2022/09/05 05:14:59;;;;;;;;;;;;;;;19.07;63.16;100581.25;10293288;28;20290;-75
2022/09/05 05:20:40;;;;;;;;;;;;;;;19.05;63.11;100584.13;10304470;28;19930;-71
2022/09/05 05:25:48;;;;;;;;;;;;;;;19.04;63.22;100590.53;10321486;28;19929;-73
2022/09/05 05:30:50;;;;;;;;;;;;;;;19.04;62.88;100593.22;10305940;28;19925;-74
2022/09/05 05:35:59;;;;;;;;;;;;;;;19.06;63.00;100601.97;10303525;28;20356;-73
2022/09/05 05:41:13;;;;;;;;;;;;;;;19.13;63.04;100601.31;10304205;28;19921;-74
2022/09/05 05:46:23;;;;;;;;;;;;;;;19.15;63.48;100604.69;10304039;28;19929;-73
2022/09/05 05:51:41;;;;;;;;;;;;;;;19.24;63.55;100612.56;10303560;28;19925;-72
2022/09/05 05:57:23;;;;;;;;;;;;;;;19.34;63.38;100604.31;10302723;28;19929;-74
2022/09/05 06:02:50;;;;;;;;;;;;;;;19.49;63.23;100609.84;10289613;28;19925;-73
2022/09/05 06:08:41;;;;;;;;;;;;;;;19.73;63.26;100614.31;10305836;28;19929;-71
2022/09/05 06:14:08;;;;;;;;;;;;;;;19.92;62.44;100617.63;10239285;28;19929;-76
2022/09/05 06:19:29;;;;;;;;;;;;;;;20.12;61.92;100613.47;10302347;28;19925;-78
2022/09/05 06:25:06;;;;;;;;;;;;;;;20.27;61.48;100618.97;10308240;28;20743;-71
2022/09/05 06:30:19;;;;;;;;;;;;;;;20.43;61.29;100619.88;10301067;28;19948;-71
2022/09/05 06:35:30;;;;;;;;;;;;;;;20.61;60.49;100611.47;10304867;28;21270;-72
2022/09/05 06:40:43;;;;;;;;;;;;;;;20.72;60.04;100623.78;10319479;28;19960;-71
2022/09/05 06:46:03;;;;;;;;;;;;;;;20.86;59.61;100617.56;10280592;28;20651;-72
2022/09/05 06:51:23;;;;;;;;;;;;;;;20.98;59.54;100617.97;10301407;28;20513;-70
2022/09/05 06:56:25;;;;;;;;;;;;;;;21.12;59.26;100614.47;10300037;28;20070;-75
2022/09/05 07:01:29;;;;;;;;;;;;;;;21.44;58.42;100622.41;10298817;28;20011;-72
2022/09/05 07:07:01;;;;;;;;;;;;;;;21.62;57.76;100603.97;10299647;28;19925;-73
2022/09/05 07:12:07;;;;;;;;;;;;;;;21.85;56.97;100621.97;10296084;28;20490;-75
2022/09/05 07:17:11;;;;;;;;;;;;;;;21.88;56.68;100608.88;10285916;28;19967;-73
2022/09/05 07:22:17;;;;;;;;;;;;;;;22.02;56.43;100614.47;10297332;28;22117;-71
2022/09/05 07:27:52;;;;;;;;;;;;;;;22.36;56.01;100621.97;10288734;28;19963;-72
2022/09/05 07:33:20;;;;;;;;;;;;;;;22.60;54.93;100628.91;10306403;28;20498;-72
2022/09/05 07:38:27;;;;;;;;;;;;;;;22.87;54.42;100631.88;10302176;28;19940;-73
2022/09/05 07:43:53;;;;;;;;;;;;;;;23.08;53.80;100624.75;10301964;28;20488;-75
2022/09/05 07:48:59;;;;;;;;;;;;;;;22.87;54.11;100623.72;10317089;28;20065;-74
2022/09/05 07:54:09;;;;;;;;;;;;;;;23.02;53.55;100626.34;10298167;28;20130;-75
2022/09/05 07:59:32;;;;;;;;;;;;;;;23.01;53.80;100623.84;10284393;28;19926;-75
2022/09/05 08:04:35;;;;;;;;;;;;;;;23.18;53.69;100629.84;10299728;28;19922;-75
2022/09/05 08:09:39;;;;;;;;;;;;;;;23.48;53.24;100630.50;10286088;28;20340;-74
2022/09/05 08:15:02;;;;;;;;;;;;;;;23.77;52.27;100639.44;10307973;28;19928;-76
2022/09/05 08:20:21;;;;;;;;;;;;;;;24.36;50.65;100629.84;10312915;28;20349;-76
2022/09/05 08:25:29;;;;;;;;;;;;;;;24.40;49.31;100616.69;10324156;28;20048;-76
2022/09/05 08:30:58;;;;;;;;;;;;;;;24.49;49.49;100615.44;10294740;28;19940;-75
2022/09/05 08:36:04;;;;;;;;;;;;;;;25.02;48.74;100617.38;10318202;28;19925;-77
2022/09/05 08:41:15;;;;;;;;;;;;;;;25.00;47.56;100608.59;10324203;28;20692;-76
2022/09/05 08:46:23;;;;;;;;;;;;;;;24.83;48.17;100614.47;10325135;28;19930;-77
2022/09/05 08:51:52;;;;;;;;;;;;;;;24.82;48.25;100609.22;10305774;28;20697;-75
2022/09/05 08:57:09;;;;;;;;;;;;;;;25.39;46.98;100602.28;10311932;28;20001;-76
2022/09/05 09:02:30;;;;;;;;;;;;;;;25.99;45.89;100593.09;10311977;28;20416;-75
2022/09/05 09:07:54;;;;;;;;;;;;;;;26.76;45.35;100593.03;10325714;28;19929;-75
2022/09/05 09:13:15;;;;;;;;;;;;;;;26.66;43.75;100581.75;10309867;28;20005;-75
2022/09/05 09:18:18;;;;;;;;;;;;;;;26.84;44.53;100588.38;10331955;28;19930;-76
2022/09/05 09:23:38;;;;;;;;;;;;;;;26.27;43.99;100583.69;10307988;28;20275;-77
2022/09/05 09:28:41;;;;;;;;;;;;;;;27.14;43.35;100583.88;10329859;28;20404;-76
2022/09/05 09:34:00;;;;;;;;;;;;;;;28.37;40.42;100563.88;10314043;28;19930;-76
2022/09/05 09:39:08;;;;;;;;;;;;;;;29.05;39.72;100579.03;10333107;28;19957;-77
2022/09/05 09:44:48;;;;;;;;;;;;;;;28.30;40.10;100580.44;10324641;28;19961;-77
2022/09/05 09:50:10;;;;;;;;;;;;;;;28.54;39.25;100575.84;10325423;28;19940;-77
2022/09/05 09:55:27;;;;;;;;;;;;;;;28.27;40.46;100580.03;10311585;28;19925;-79
2022/09/05 10:00:50;;;;;;;;;;;;;;;28.55;39.70;100566.56;10304204;28;20381;-77
2022/09/05 10:05:51;;;;;;;;;;;;;;;30.21;36.03;100563.63;10324931;28;20424;-78
2022/09/05 10:11:30;;;;;;;;;;;;;;;31.38;34.44;100552.03;10300384;28;19934;-76
2022/09/05 10:16:52;;;;;;;;;;;;;;;31.72;33.84;100552.78;10312738;28;20325;-78
2022/09/05 10:22:06;;;;;;;;;;;;;;;35.15;29.48;100542.81;10296945;28;19925;-75
2022/09/05 10:27:35;;;;;;;;;;;;;;;36.25;26.97;100537.28;10304023;28;19948;-78
2022/09/05 10:32:37;;;;;;;;;;;;;;;35.56;27.23;100531.59;10306850;28;20056;-78
2022/09/05 10:38:07;;;;;;;;;;;;;;;34.56;27.25;100524.09;10309494;28;19930;-78
2022/09/05 10:43:17;;;;;;;;;;;;;;;36.05;25.78;100520.84;10300657;28;20410;-77
2022/09/05 10:48:22;;;;;;;;;;;;;;;40.00;20.06;100513.25;10287844;28;19926;-76
2022/09/05 10:53:41;;;;;;;;;;;;;;;41.32;18.99;100498.06;10317412;28;20324;-80
2022/09/05 10:58:51;;;;;;;;;;;;;;;41.12;19.22;100489.13;10307917;28;20308;-78
2022/09/05 11:04:32;;;;;;;;;;;;;;;41.02;19.33;100471.81;10313963;28;19999;-80
2022/09/05 11:09:58;;;;;;;;;;;;;;;42.72;17.46;100470.00;10316877;28;20371;-79
2022/09/05 11:15:04;;;;;;;;;;;;;;;37.46;22.25;100470.09;10308645;28;19925;-80
2022/09/05 11:20:05;;;;;;;;;;;;;;;35.07;25.82;100468.75;10302575;28;20351;-82
2022/09/05 11:25:19;;;;;;;;;;;;;;;40.49;20.28;100457.66;10323952;28;20384;-80
2022/09/05 11:30:47;;;;;;;;;;;;;;;45.04;16.43;100461.34;10298576;28;19921;-77
2022/09/05 11:36:00;;;;;;;;;;;;;;;46.21;14.96;100445.53;10272499;28;19932;-79
2022/09/05 11:41:40;;;;;;;;;;;;;;;46.86;14.25;100446.31;10278170;28;19929;-79
2022/09/05 11:47:14;;;;;;;;;;;;;;;47.95;13.17;100447.50;10324895;28;20032;-82
2022/09/05 11:52:57;;;;;;;;;;;;;;;49.21;12.05;100441.16;10265693;28;20436;-81
2022/09/05 11:58:15;;;;;;;;;;;;;;;43.90;16.18;100434.63;10211128;28;20261;-84
2022/09/05 12:03:51;;;;;;;;;;;;;;;45.24;14.65;100430.63;10271935;28;19969;-81
2022/09/05 12:09:19;;;;;;;;;;;;;;;48.15;12.28;100428.53;10255947;28;20422;-82
2022/09/05 12:14:43;;;;;;;;;;;;;;;49.51;12.04;100417.69;10238032;28;19930;-82
2022/09/05 12:19:58;;;;;;;;;;;;;;;49.69;11.13;100406.59;10280073;28;20004;-83
2022/09/05 12:25:14;;;;;;;;;;;;;;;51.07;11.04;100392.41;10268787;28;20111;-82
2022/09/05 12:30:38;;;;;;;;;;;;;;;51.12;10.18;100382.69;10251537;28;19948;-82
2022/09/05 12:36:17;;;;;;;;;;;;;;;50.85;9.88;100386.56;10230018;28;19928;-82
2022/09/05 12:41:51;;;;;;;;;;;;;;;50.01;10.59;100381.50;10254343;28;19932;-79
2022/09/05 12:47:16;;;;;;;;;;;;;;;46.33;13.56;100373.47;10251233;28;20296;-82
2022/09/05 12:52:32;;;;;;;;;;;;;;;44.07;15.41;100377.53;10254970;28;21006;-82
2022/09/05 12:57:40;;;;;;;;;;;;;;;41.06;17.00;100361.19;10263881;28;19929;-80
2022/09/05 13:03:02;;;;;;;;;;;;;;;38.65;18.87;100361.41;10248668;28;20384;-81
2022/09/05 13:08:27;;;;;;;;;;;;;;;36.86;20.20;100354.88;10256543;28;19929;-79
2022/09/05 13:13:35;;;;;;;;;;;;;;;35.35;21.83;100353.78;10269597;28;20000;-80
2022/09/05 13:19:06;;;;;;;;;;;;;;;35.61;22.10;100338.94;10287143;28;19928;-85
2022/09/05 13:24:26;;;;;;;;;;;;;;;36.05;22.41;100338.03;10301604;28;21107;-80
2022/09/05 13:29:31;;;;;;;;;;;;;;;35.66;22.21;100333.38;10278696;28;19980;-86
2022/09/05 13:34:55;;;;;;;;;;;;;;;35.68;21.97;100328.38;10306492;28;20740;-80
2022/09/05 13:40:18;;;;;;;;;;;;;;;35.17;23.06;100338.66;10269854;28;19936;-78
2022/09/05 13:45:21;;;;;;;;;;;;;;;34.49;23.78;100334.56;10269830;28;19951;-81
2022/09/05 13:50:28;;;;;;;;;;;;;;;34.59;23.57;100319.88;10287443;28;19937;-82
2022/09/05 13:55:44;;;;;;;;;;;;;;;34.69;23.50;100324.53;10270074;28;20339;-78
2022/09/05 14:01:05;;;;;;;;;;;;;;;34.27;23.90;100318.31;10269778;28;19930;-82
2022/09/05 14:06:14;;;;;;;;;;;;;;;33.76;24.95;100316.44;10282063;28;20083;-77
2022/09/05 14:11:55;;;;;;;;;;;;;;;33.41;25.05;100307.03;10262316;28;20070;-82
2022/09/05 14:17:04;;;;;;;;;;;;;;;33.26;24.93;100301.50;10262894;28;19929;-79
2022/09/05 14:22:44;;;;;;;;;;;;;;;32.89;25.43;100296.97;10265240;28;19930;-80
2022/09/05 14:27:47;;;;;;;;;;;;;;;32.30;26.28;100300.88;10270761;28;19929;-80
2022/09/05 14:33:10;;;;;;;;;;;;;;;31.82;26.79;100303.56;10259018;28;20602;-80
2022/09/05 14:38:37;;;;;;;;;;;;;;;31.90;27.16;100295.66;10231957;28;20249;-79
2022/09/05 14:44:01;;;;;;;;;;;;;;;31.55;27.38;100287.94;10259263;28;19925;-80
2022/09/05 14:49:14;;;;;;;;;;;;;;;31.19;27.69;100288.41;10245096;28;19937;-78
2022/09/05 14:54:18;;;;;;;;;;;;;;;31.08;27.70;100286.66;10261398;28;21124;-79
2022/09/05 14:59:41;;;;;;;;;;;;;;;30.94;28.28;100277.97;10272533;28;19992;-77
2022/09/05 15:05:12;;;;;;;;;;;;;;;30.88;28.50;100283.66;10259573;28;19925;-81
2022/09/05 15:10:19;;;;;;;;;;;;;;;30.83;28.52;100271.50;10276046;28;20015;-80
2022/09/05 15:15:51;;;;;;;;;;;;;;;30.61;28.38;100281.69;10268418;28;20020;-79
2022/09/05 15:21:25;;;;;;;;;;;;;;;30.36;28.88;100266.53;10267120;28;19998;-79
2022/09/05 15:26:45;;;;;;;;;;;;;;;30.20;29.26;100261.94;10254011;28;19936;-73
2022/09/05 15:31:47;;;;;;;;;;;;;;;30.11;29.67;100256.06;10254770;28;19926;-75
2022/09/05 15:37:20;;;;;;;;;;;;;;;29.93;29.67;100251.69;10270579;28;20476;-74
2022/09/05 15:42:27;;;;;;;;;;;;;;;29.96;29.50;100257.47;10273924;28;20404;-72
2022/09/05 15:47:28;;;;;;;;;;;;;;;29.97;29.54;100242.69;10241581;28;20154;-72
2022/09/05 15:52:36;;;;;;;;;;;;;;;30.11;29.61;100243.16;10265969;28;20413;-73
2022/09/05 15:57:39;;;;;;;;;;;;;;;30.16;29.76;100242.38;10284517;28;20964;-73
2022/09/05 16:02:45;;;;;;;;;;;;;;;30.12;29.62;100236.59;10277219;28;19928;-73
2022/09/05 16:08:03;;;;;;;;;;;;;;;30.05;30.46;100230.44;10266959;28;19926;-73
2022/09/05 16:13:25;;;;;;;;;;;;;;;29.95;30.09;100233.91;10268689;28;19929;-75
2022/09/05 16:18:48;;;;;;;;;;;;;;;29.89;30.39;100229.41;10268617;28;19929;-74
2022/09/05 16:24:14;;;;;;;;;;;;;;;29.85;30.73;100222.78;10268247;28;19925;-74
2022/09/05 16:29:23;;;;;;;;;;;;;;;29.87;30.53;100219.78;10263602;28;20036;-75
2022/09/05 16:34:33;;;;;;;;;;;;;;;29.81;30.47;100213.38;10268389;28;20374;-75
2022/09/05 16:39:42;;;;;;;;;;;;;;;29.77;30.45;100220.41;10269913;28;19968;-75
2022/09/05 16:44:47;;;;;;;;;;;;;;;29.70;30.90;100209.63;10285369;28;19925;-72
2022/09/05 16:49:56;;;;;;;;;;;;;;;29.59;31.06;100208.66;10264785;28;20012;-75
2022/09/05 16:55:11;;;;;;;;;;;;;;;29.47;30.75;100210.66;10266329;28;19992;-74
2022/09/05 17:00:13;;;;;;;;;;;;;;;29.29;30.87;100202.66;10264084;28;19932;-74
2022/09/05 17:05:29;;;;;;;;;;;;;;;29.12;31.43;100197.97;10270238;28;19936;-75
2022/09/05 17:10:42;;;;;;;;;;;;;;;28.91;31.10;100186.69;10265487;28;19926;-75
2022/09/05 17:15:48;;;;;;;;;;;;;;;28.76;32.07;100189.13;10268192;28;19929;-75
2022/09/05 17:20:54;;;;;;;;;;;;;;;28.61;32.16;100186.13;10251697;28;20565;-74
2022/09/05 17:25:58;;;;;;;;;;;;;;;28.50;32.24;100185.88;10270000;28;19949;-74
2022/09/05 17:31:36;;;;;;;;;;;;;;;28.36;32.81;100174.41;10263823;28;20377;-71
2022/09/05 17:37:15;;;;;;;;;;;;;;;28.23;33.17;100184.81;10268260;28;20076;-76
2022/09/05 17:42:24;;;;;;;;;;;;;;;28.09;33.17;100179.59;10271018;28;20456;-74
2022/09/05 17:47:41;;;;;;;;;;;;;;;27.93;33.91;100167.47;10260088;28;20075;-74
2022/09/05 17:53:02;;;;;;;;;;;;;;;27.80;34.07;100176.75;10239291;28;19926;-76
2022/09/05 17:58:34;;;;;;;;;;;;;;;27.64;34.83;100180.22;10268016;28;20427;-74
2022/09/05 18:03:50;;;;;;;;;;;;;;;27.49;34.75;100186.16;10255689;28;19930;-75
2022/09/05 18:08:51;;;;;;;;;;;;;;;27.37;35.66;100194.34;10248988;28;20332;-76
2022/09/05 18:13:56;;;;;;;;;;;;;;;27.20;35.81;100198.81;10263941;28;19930;-73
2022/09/05 18:19:12;;;;;;;;;;;;;;;27.11;36.15;100201.88;10252983;28;20002;-74
2022/09/05 18:24:56;;;;;;;;;;;;;;;26.97;36.27;100205.88;10264875;28;19936;-75
2022/09/05 18:30:17;;;;;;;;;;;;;;;26.85;37.69;100211.31;10265077;28;19929;-73
2022/09/05 18:35:35;;;;;;;;;;;;;;;26.70;40.60;100211.72;10251530;28;20389;-73
2022/09/05 18:40:52;;;;;;;;;;;;;;;26.56;40.33;100218.41;10245273;28;20004;-73
2022/09/05 18:46:19;;;;;;;;;;;;;;;26.41;39.75;100225.09;10242619;28;19921;-75
2022/09/05 18:51:26;;;;;;;;;;;;;;;26.24;39.24;100224.03;10256130;28;19936;-74
2022/09/05 18:56:41;;;;;;;;;;;;;;;26.10;39.32;100232.34;10273174;28;19925;-74
2022/09/05 19:02:09;;;;;;;;;;;;;;;26.13;37.61;100241.16;10247882;28;19925;-75
2022/09/05 19:07:39;;;;;;;;;;;;;;;26.10;37.17;100232.34;10258896;28;19926;-73
2022/09/05 19:12:53;;;;;;;;;;;;;;;26.06;37.41;100235.75;10273609;28;20003;-70
2022/09/05 19:17:56;;;;;;;;;;;;;;;25.98;37.30;100225.97;10244004;28;20577;-74
2022/09/05 19:23:24;;;;;;;;;;;;;;;25.88;37.56;100231.94;10257845;28;19925;-73
2022/09/05 19:28:31;;;;;;;;;;;;;;;25.75;38.90;100224.72;10243376;28;19930;-72
2022/09/05 19:33:52;;;;;;;;;;;;;;;25.65;38.52;100218.94;10260646;28;19930;-73
2022/09/05 19:39:14;;;;;;;;;;;;;;;25.55;39.46;100216.75;10245792;28;19922;-73
2022/09/05 19:44:41;;;;;;;;;;;;;;;25.40;39.49;100208.06;10261172;28;19937;-73
2022/09/05 19:50:05;;;;;;;;;;;;;;;25.37;39.19;100203.91;10257751;28;20554;-72
2022/09/05 19:55:17;;;;;;;;;;;;;;;25.31;40.51;100202.06;10270932;28;19925;-71
2022/09/05 20:00:22;;;;;;;;;;;;;;;25.15;40.78;100208.03;10239625;28;20435;-71
2022/09/05 20:05:24;;;;;;;;;;;;;;;24.96;40.18;100198.94;10240953;28;19932;-70
2022/09/05 20:10:27;;;;;;;;;;;;;;;24.90;41.10;100200.63;10240248;28;19958;-70
2022/09/05 20:15:35;;;;;;;;;;;;;;;24.84;41.34;100204.25;10256990;28;19953;-75
2022/09/05 20:20:37;;;;;;;;;;;;;;;24.79;42.32;100193.19;10243404;28;20309;-71
2022/09/05 20:25:46;;;;;;;;;;;;;;;24.73;41.90;100197.63;10254070;28;20007;-72
2022/09/05 20:30:52;;;;;;;;;;;;;;;24.63;42.03;100198.06;10256391;28;19926;-74
2022/09/05 20:35:55;;;;;;;;;;;;;;;24.54;41.56;100199.34;10238965;28;19961;-71
2022/09/05 20:41:22;;;;;;;;;;;;;;;24.53;41.92;100195.81;10259969;28;19937;-72
2022/09/05 20:46:50;;;;;;;;;;;;;;;24.52;42.75;100196.84;10251360;28;19926;-73
2022/09/05 20:52:14;;;;;;;;;;;;;;;24.49;42.66;100191.84;10262930;28;19926;-72
2022/09/05 20:57:35;;;;;;;;;;;;;;;24.43;42.82;100202.75;10264140;28;19929;-71
2022/09/05 21:02:46;;;;;;;;;;;;;;;24.34;43.24;100194.00;10261650;28;20380;-75
2022/09/05 21:07:51;;;;;;;;;;;;;;;24.26;43.16;100205.97;10264751;28;20017;-71
2022/09/05 21:13:08;;;;;;;;;;;;;;;24.26;44.16;100207.84;10267380;28;19973;-73
2022/09/05 21:18:15;;;;;;;;;;;;;;;24.18;43.83;100207.03;10268298;28;20146;-74
2022/09/05 21:23:20;;;;;;;;;;;;;;;24.13;43.54;100206.84;10262726;28;20104;-72
2022/09/05 21:28:23;;;;;;;;;;;;;;;24.10;44.18;100210.00;10273934;28;19928;-73
2022/09/05 21:33:41;;;;;;;;;;;;;;;24.08;44.17;100217.53;10269058;28;19926;-73
2022/09/05 21:38:46;;;;;;;;;;;;;;;24.00;44.22;100215.88;10271379;28;19992;-73
2022/09/05 21:43:48;;;;;;;;;;;;;;;23.90;43.82;100209.19;10269680;28;20109;-73
2022/09/05 21:49:09;;;;;;;;;;;;;;;23.85;43.96;100212.56;10268425;28;19930;-72
2022/09/05 21:54:11;;;;;;;;;;;;;;;23.81;44.18;100220.28;10261069;28;19933;-72
2022/09/05 21:59:33;;;;;;;;;;;;;;;23.78;43.97;100223.41;10267549;28;19933;-72
2022/09/05 22:04:48;;;;;;;;;;;;;;;23.75;43.84;100217.53;10271253;28;19936;-74
2022/09/05 22:09:49;;;;;;;;;;;;;;;23.71;43.81;100205.44;10271156;28;19937;-71
2022/09/05 22:14:51;;;;;;;;;;;;;;;23.69;44.43;100196.66;10270479;28;19922;-70
2022/09/05 22:19:52;;;;;;;;;;;;;;;23.64;43.92;100197.28;10262789;28;19926;-74
2022/09/05 22:25:00;;;;;;;;;;;;;;;23.61;43.98;100184.97;10258456;28;20427;-73
2022/09/05 22:30:05;;;;;;;;;;;;;;;23.53;44.22;100170.78;10260023;28;20173;-72
2022/09/05 22:35:08;;;;;;;;;;;;;;;23.43;44.83;100161.16;10262910;28;19921;-73
2022/09/05 22:40:29;;;;;;;;;;;;;;;23.35;44.84;100158.66;10264768;28;19972;-73
2022/09/05 22:45:31;;;;;;;;;;;;;;;23.35;45.27;100160.56;10268674;28;20463;-72
2022/09/05 22:50:33;;;;;;;;;;;;;;;23.32;45.22;100169.13;10265426;28;19930;-72
2022/09/05 22:55:34;;;;;;;;;;;;;;;23.34;45.47;100172.47;10252893;28;19937;-70
2022/09/05 23:00:36;;;;;;;;;;;;;;;23.32;45.59;100174.56;10269357;28;20298;-74
2022/09/05 23:05:37;;;;;;;;;;;;;;;23.25;45.27;100167.22;10268895;28;19926;-72
2022/09/05 23:10:39;;;;;;;;;;;;;;;23.17;45.33;100170.16;10266654;28;20407;-73
2022/09/05 23:15:40;;;;;;;;;;;;;;;23.22;46.36;100162.22;10265591;28;20105;-74
2022/09/05 23:20:41;;;;;;;;;;;;;;;23.17;45.37;100167.44;10260538;28;19929;-74
2022/09/05 23:25:42;;;;;;;;;;;;;;;23.08;45.47;100179.53;10265892;28;19921;-72
2022/09/05 23:30:44;;;;;;;;;;;;;;;23.14;46.27;100177.91;10268637;28;20304;-73
2022/09/05 23:35:45;;;;;;;;;;;;;;;23.16;46.82;100187.50;10267629;28;20282;-71
2022/09/05 23:40:46;;;;;;;;;;;;;;;23.09;46.46;100176.63;10262385;28;20000;-73
2022/09/05 23:45:47;;;;;;;;;;;;;;;23.06;46.54;100166.16;10267303;28;20372;-73
2022/09/05 23:50:49;;;;;;;;;;;;;;;23.03;47.12;100163.00;10268880;28;20029;-73
2022/09/05 23:55:51;;;;;;;;;;;;;;;23.05;46.65;100169.09;10270163;28;20044;-70
